sensor_id;sensor_type;location;lat;lon;timestamp;P1;durP1;ratioP1;P2;durP2;ratioP2
18931;SDS011;9598;50.954;3.112;2023-05-19T00:01:59;10.95;;;9.40;;
18931;SDS011;9598;50.954;3.112;2023-05-19T00:07:05;12.20;;;8.88;;
18931;SDS011;9598;50.954;3.112;2023-05-19T00:12:10;10.02;;;8.95;;
18931;SDS011;9598;50.954;3.112;2023-05-19T00:17:15;11.88;;;9.48;;
18931;SDS011;9598;50.954;3.112;2023-05-19T00:22:17;11.55;;;9.57;;
18931;SDS011;9598;50.954;3.112;2023-05-19T00:27:19;11.63;;;8.90;;
18931;SDS011;9598;50.954;3.112;2023-05-19T00:32:23;13.57;;;10.45;;
18931;SDS011;9598;50.954;3.112;2023-05-19T00:37:25;9.85;;;8.85;;
18931;SDS011;9598;50.954;3.112;2023-05-19T00:42:27;12.20;;;9.38;;
18931;SDS011;9598;50.954;3.112;2023-05-19T00:47:30;12.75;;;9.70;;
18931;SDS011;9598;50.954;3.112;2023-05-19T00:52:33;12.05;;;9.90;;
18931;SDS011;9598;50.954;3.112;2023-05-19T00:57:35;13.65;;;10.30;;
18931;SDS011;9598;50.954;3.112;2023-05-19T01:02:39;11.30;;;10.13;;
18931;SDS011;9598;50.954;3.112;2023-05-19T01:07:41;9.93;;;8.98;;
18931;SDS011;9598;50.954;3.112;2023-05-19T01:12:44;11.98;;;9.68;;
18931;SDS011;9598;50.954;3.112;2023-05-19T01:17:50;13.63;;;10.48;;
18931;SDS011;9598;50.954;3.112;2023-05-19T01:23:08;12.13;;;10.63;;
18931;SDS011;9598;50.954;3.112;2023-05-19T01:33:53;13.57;;;10.38;;
18931;SDS011;9598;50.954;3.112;2023-05-19T01:38:57;12.77;;;9.90;;
18931;SDS011;9598;50.954;3.112;2023-05-19T01:44:00;14.43;;;10.73;;
18931;SDS011;9598;50.954;3.112;2023-05-19T01:49:04;14.88;;;11.40;;
18931;SDS011;9598;50.954;3.112;2023-05-19T01:54:08;15.43;;;11.52;;
18931;SDS011;9598;50.954;3.112;2023-05-19T01:59:13;15.38;;;11.63;;
18931;SDS011;9598;50.954;3.112;2023-05-19T02:04:33;13.15;;;11.00;;
18931;SDS011;9598;50.954;3.112;2023-05-19T02:09:46;16.13;;;12.07;;
18931;SDS011;9598;50.954;3.112;2023-05-19T02:14:54;14.07;;;11.27;;
18931;SDS011;9598;50.954;3.112;2023-05-19T02:20:04;15.07;;;12.02;;
18931;SDS011;9598;50.954;3.112;2023-05-19T02:25:08;13.82;;;11.77;;
18931;SDS011;9598;50.954;3.112;2023-05-19T02:30:11;16.63;;;11.80;;
18931;SDS011;9598;50.954;3.112;2023-05-19T02:35:14;15.77;;;11.88;;
18931;SDS011;9598;50.954;3.112;2023-05-19T02:40:17;14.70;;;12.15;;
18931;SDS011;9598;50.954;3.112;2023-05-19T02:45:19;17.65;;;12.15;;
18931;SDS011;9598;50.954;3.112;2023-05-19T02:50:23;14.52;;;13.02;;
18931;SDS011;9598;50.954;3.112;2023-05-19T02:55:25;13.90;;;12.13;;
18931;SDS011;9598;50.954;3.112;2023-05-19T03:00:27;14.05;;;11.98;;
18931;SDS011;9598;50.954;3.112;2023-05-19T03:05:30;15.02;;;11.93;;
18931;SDS011;9598;50.954;3.112;2023-05-19T03:10:32;14.93;;;11.75;;
18931;SDS011;9598;50.954;3.112;2023-05-19T03:15:34;15.25;;;12.65;;
18931;SDS011;9598;50.954;3.112;2023-05-19T03:20:38;14.88;;;12.07;;
18931;SDS011;9598;50.954;3.112;2023-05-19T03:25:42;22.05;;;13.05;;
18931;SDS011;9598;50.954;3.112;2023-05-19T03:30:45;15.50;;;12.52;;
18931;SDS011;9598;50.954;3.112;2023-05-19T03:35:53;18.33;;;13.88;;
18931;SDS011;9598;50.954;3.112;2023-05-19T03:40:56;17.65;;;13.90;;
18931;SDS011;9598;50.954;3.112;2023-05-19T03:45:58;20.08;;;14.15;;
18931;SDS011;9598;50.954;3.112;2023-05-19T03:51:27;20.42;;;14.70;;
18931;SDS011;9598;50.954;3.112;2023-05-19T03:56:36;20.27;;;13.82;;
18931;SDS011;9598;50.954;3.112;2023-05-19T04:01:41;17.20;;;14.60;;
18931;SDS011;9598;50.954;3.112;2023-05-19T04:06:44;21.02;;;14.88;;
18931;SDS011;9598;50.954;3.112;2023-05-19T04:11:48;16.95;;;14.18;;
18931;SDS011;9598;50.954;3.112;2023-05-19T04:16:51;17.80;;;14.20;;
18931;SDS011;9598;50.954;3.112;2023-05-19T04:21:54;17.50;;;15.13;;
18931;SDS011;9598;50.954;3.112;2023-05-19T04:26:56;19.20;;;14.82;;
18931;SDS011;9598;50.954;3.112;2023-05-19T04:32:02;17.17;;;14.05;;
18931;SDS011;9598;50.954;3.112;2023-05-19T04:37:08;18.45;;;14.27;;
18931;SDS011;9598;50.954;3.112;2023-05-19T04:42:12;19.48;;;15.18;;
18931;SDS011;9598;50.954;3.112;2023-05-19T04:47:18;18.88;;;14.95;;
18931;SDS011;9598;50.954;3.112;2023-05-19T04:52:23;20.17;;;15.00;;
18931;SDS011;9598;50.954;3.112;2023-05-19T04:57:27;17.75;;;14.95;;
18931;SDS011;9598;50.954;3.112;2023-05-19T05:02:29;19.00;;;15.25;;
18931;SDS011;9598;50.954;3.112;2023-05-19T05:07:35;19.00;;;14.55;;
18931;SDS011;9598;50.954;3.112;2023-05-19T05:12:37;19.92;;;14.27;;
18931;SDS011;9598;50.954;3.112;2023-05-19T05:17:40;17.30;;;13.93;;
18931;SDS011;9598;50.954;3.112;2023-05-19T05:22:44;16.63;;;13.30;;
18931;SDS011;9598;50.954;3.112;2023-05-19T05:27:47;18.75;;;13.15;;
18931;SDS011;9598;50.954;3.112;2023-05-19T05:32:50;18.98;;;14.13;;
18931;SDS011;9598;50.954;3.112;2023-05-19T05:38:04;18.80;;;14.25;;
18931;SDS011;9598;50.954;3.112;2023-05-19T05:43:08;17.83;;;14.20;;
18931;SDS011;9598;50.954;3.112;2023-05-19T05:48:17;16.50;;;13.30;;
18931;SDS011;9598;50.954;3.112;2023-05-19T05:53:21;17.73;;;14.32;;
18931;SDS011;9598;50.954;3.112;2023-05-19T05:58:28;17.33;;;13.23;;
18931;SDS011;9598;50.954;3.112;2023-05-19T06:03:32;14.98;;;12.55;;
18931;SDS011;9598;50.954;3.112;2023-05-19T06:08:40;15.55;;;11.80;;
18931;SDS011;9598;50.954;3.112;2023-05-19T06:13:42;16.98;;;13.40;;
18931;SDS011;9598;50.954;3.112;2023-05-19T06:18:52;15.50;;;12.57;;
18931;SDS011;9598;50.954;3.112;2023-05-19T06:23:56;16.65;;;12.98;;
18931;SDS011;9598;50.954;3.112;2023-05-19T06:28:59;18.23;;;12.13;;
18931;SDS011;9598;50.954;3.112;2023-05-19T06:34:01;15.10;;;13.52;;
18931;SDS011;9598;50.954;3.112;2023-05-19T06:39:05;17.05;;;14.05;;
18931;SDS011;9598;50.954;3.112;2023-05-19T06:44:07;19.60;;;16.00;;
18931;SDS011;9598;50.954;3.112;2023-05-19T06:49:09;22.60;;;15.85;;
18931;SDS011;9598;50.954;3.112;2023-05-19T06:54:17;20.23;;;16.08;;
18931;SDS011;9598;50.954;3.112;2023-05-19T06:59:19;18.60;;;14.60;;
18931;SDS011;9598;50.954;3.112;2023-05-19T07:04:23;19.38;;;13.68;;
18931;SDS011;9598;50.954;3.112;2023-05-19T07:09:26;19.67;;;15.93;;
18931;SDS011;9598;50.954;3.112;2023-05-19T07:14:30;19.55;;;15.20;;
18931;SDS011;9598;50.954;3.112;2023-05-19T07:19:33;20.30;;;15.35;;
18931;SDS011;9598;50.954;3.112;2023-05-19T07:24:36;18.50;;;14.27;;
18931;SDS011;9598;50.954;3.112;2023-05-19T07:29:38;15.43;;;13.73;;
18931;SDS011;9598;50.954;3.112;2023-05-19T07:34:40;18.23;;;11.80;;
18931;SDS011;9598;50.954;3.112;2023-05-19T07:39:44;14.38;;;11.80;;
18931;SDS011;9598;50.954;3.112;2023-05-19T07:44:46;16.70;;;11.05;;
18931;SDS011;9598;50.954;3.112;2023-05-19T07:49:48;15.07;;;11.23;;
18931;SDS011;9598;50.954;3.112;2023-05-19T07:54:52;14.20;;;10.77;;
18931;SDS011;9598;50.954;3.112;2023-05-19T07:59:54;12.35;;;10.15;;
18931;SDS011;9598;50.954;3.112;2023-05-19T08:04:56;16.00;;;10.32;;
18931;SDS011;9598;50.954;3.112;2023-05-19T08:09:59;14.65;;;9.40;;
18931;SDS011;9598;50.954;3.112;2023-05-19T08:15:02;10.20;;;9.20;;
18931;SDS011;9598;50.954;3.112;2023-05-19T08:20:05;10.90;;;8.82;;
18931;SDS011;9598;50.954;3.112;2023-05-19T08:25:10;11.68;;;8.63;;
18931;SDS011;9598;50.954;3.112;2023-05-19T08:30:13;11.52;;;8.32;;
18931;SDS011;9598;50.954;3.112;2023-05-19T08:35:15;11.40;;;8.88;;
18931;SDS011;9598;50.954;3.112;2023-05-19T08:40:19;12.20;;;8.32;;
18931;SDS011;9598;50.954;3.112;2023-05-19T08:45:21;12.80;;;7.47;;
18931;SDS011;9598;50.954;3.112;2023-05-19T08:50:26;10.90;;;7.95;;
18931;SDS011;9598;50.954;3.112;2023-05-19T08:55:32;13.32;;;6.88;;
18931;SDS011;9598;50.954;3.112;2023-05-19T09:00:42;10.00;;;6.95;;
18931;SDS011;9598;50.954;3.112;2023-05-19T09:05:45;9.65;;;6.13;;
18931;SDS011;9598;50.954;3.112;2023-05-19T09:10:49;9.88;;;6.00;;
18931;SDS011;9598;50.954;3.112;2023-05-19T09:15:52;10.43;;;5.60;;
18931;SDS011;9598;50.954;3.112;2023-05-19T09:20:56;7.15;;;5.53;;
18931;SDS011;9598;50.954;3.112;2023-05-19T09:26:01;8.00;;;5.63;;
18931;SDS011;9598;50.954;3.112;2023-05-19T09:31:06;9.93;;;5.30;;
18931;SDS011;9598;50.954;3.112;2023-05-19T09:36:10;7.75;;;5.47;;
18931;SDS011;9598;50.954;3.112;2023-05-19T09:41:13;10.13;;;5.13;;
18931;SDS011;9598;50.954;3.112;2023-05-19T09:46:15;10.85;;;5.65;;
18931;SDS011;9598;50.954;3.112;2023-05-19T09:51:17;7.72;;;6.15;;
18931;SDS011;9598;50.954;3.112;2023-05-19T09:56:21;9.02;;;5.55;;
18931;SDS011;9598;50.954;3.112;2023-05-19T10:01:24;8.25;;;5.55;;
18931;SDS011;9598;50.954;3.112;2023-05-19T10:06:26;8.23;;;5.70;;
18931;SDS011;9598;50.954;3.112;2023-05-19T10:11:30;8.40;;;5.85;;
18931;SDS011;9598;50.954;3.112;2023-05-19T10:16:32;7.07;;;5.68;;
18931;SDS011;9598;50.954;3.112;2023-05-19T10:21:36;8.43;;;6.25;;
18931;SDS011;9598;50.954;3.112;2023-05-19T10:26:40;8.82;;;6.00;;
18931;SDS011;9598;50.954;3.112;2023-05-19T10:31:45;7.72;;;6.20;;
18931;SDS011;9598;50.954;3.112;2023-05-19T10:36:53;6.75;;;5.55;;
18931;SDS011;9598;50.954;3.112;2023-05-19T10:42:06;9.20;;;6.90;;
18931;SDS011;9598;50.954;3.112;2023-05-19T10:47:14;7.35;;;5.97;;
18931;SDS011;9598;50.954;3.112;2023-05-19T10:52:22;7.97;;;5.65;;
18931;SDS011;9598;50.954;3.112;2023-05-19T10:57:27;8.93;;;5.32;;
18931;SDS011;9598;50.954;3.112;2023-05-19T11:02:38;8.40;;;7.25;;
18931;SDS011;9598;50.954;3.112;2023-05-19T11:07:41;8.05;;;7.25;;
18931;SDS011;9598;50.954;3.112;2023-05-19T11:12:46;9.02;;;6.70;;
18931;SDS011;9598;50.954;3.112;2023-05-19T11:17:50;10.85;;;7.25;;
18931;SDS011;9598;50.954;3.112;2023-05-19T11:23:00;9.15;;;6.45;;
18931;SDS011;9598;50.954;3.112;2023-05-19T11:28:07;7.97;;;6.40;;
18931;SDS011;9598;50.954;3.112;2023-05-19T11:33:11;7.32;;;6.15;;
18931;SDS011;9598;50.954;3.112;2023-05-19T11:38:13;8.70;;;6.20;;
18931;SDS011;9598;50.954;3.112;2023-05-19T11:43:18;6.95;;;6.25;;
18931;SDS011;9598;50.954;3.112;2023-05-19T11:48:22;8.95;;;6.00;;
18931;SDS011;9598;50.954;3.112;2023-05-19T11:53:26;11.43;;;6.20;;
18931;SDS011;9598;50.954;3.112;2023-05-19T11:58:32;8.30;;;6.38;;
18931;SDS011;9598;50.954;3.112;2023-05-19T12:03:34;6.45;;;5.85;;
18931;SDS011;9598;50.954;3.112;2023-05-19T12:08:36;6.43;;;5.35;;
18931;SDS011;9598;50.954;3.112;2023-05-19T12:13:39;8.27;;;5.15;;
18931;SDS011;9598;50.954;3.112;2023-05-19T12:18:42;6.38;;;4.78;;
18931;SDS011;9598;50.954;3.112;2023-05-19T12:23:44;6.05;;;5.15;;
18931;SDS011;9598;50.954;3.112;2023-05-19T12:28:47;8.55;;;4.55;;
18931;SDS011;9598;50.954;3.112;2023-05-19T12:33:51;6.20;;;4.32;;
18931;SDS011;9598;50.954;3.112;2023-05-19T12:38:54;7.90;;;5.30;;
18931;SDS011;9598;50.954;3.112;2023-05-19T12:43:57;8.95;;;5.75;;
18931;SDS011;9598;50.954;3.112;2023-05-19T12:48:59;7.07;;;5.05;;
18931;SDS011;9598;50.954;3.112;2023-05-19T12:54:01;7.25;;;5.25;;
18931;SDS011;9598;50.954;3.112;2023-05-19T12:59:05;5.30;;;4.65;;
18931;SDS011;9598;50.954;3.112;2023-05-19T13:04:07;8.90;;;5.70;;
18931;SDS011;9598;50.954;3.112;2023-05-19T13:09:09;8.10;;;5.30;;
18931;SDS011;9598;50.954;3.112;2023-05-19T13:14:12;5.70;;;4.97;;
18931;SDS011;9598;50.954;3.112;2023-05-19T13:19:16;7.75;;;5.20;;
18931;SDS011;9598;50.954;3.112;2023-05-19T13:24:19;7.25;;;4.68;;
18931;SDS011;9598;50.954;3.112;2023-05-19T13:29:22;9.32;;;5.15;;
18931;SDS011;9598;50.954;3.112;2023-05-19T13:34:24;8.57;;;3.92;;
18931;SDS011;9598;50.954;3.112;2023-05-19T13:39:26;7.35;;;4.70;;
18931;SDS011;9598;50.954;3.112;2023-05-19T13:44:30;7.43;;;4.45;;
18931;SDS011;9598;50.954;3.112;2023-05-19T13:49:32;6.32;;;4.22;;
18931;SDS011;9598;50.954;3.112;2023-05-19T13:54:34;8.52;;;5.20;;
18931;SDS011;9598;50.954;3.112;2023-05-19T13:59:38;10.27;;;6.63;;
18931;SDS011;9598;50.954;3.112;2023-05-19T14:04:41;10.00;;;6.30;;
18931;SDS011;9598;50.954;3.112;2023-05-19T14:09:43;12.30;;;7.35;;
18931;SDS011;9598;50.954;3.112;2023-05-19T14:14:46;14.05;;;9.23;;
18931;SDS011;9598;50.954;3.112;2023-05-19T14:19:49;11.63;;;8.93;;
18931;SDS011;9598;50.954;3.112;2023-05-19T14:24:51;11.98;;;9.40;;
18931;SDS011;9598;50.954;3.112;2023-05-19T14:29:54;14.38;;;8.65;;
18931;SDS011;9598;50.954;3.112;2023-05-19T14:34:57;12.98;;;7.97;;
18931;SDS011;9598;50.954;3.112;2023-05-19T14:39:59;13.27;;;7.97;;
18931;SDS011;9598;50.954;3.112;2023-05-19T14:45:02;14.52;;;8.60;;
18931;SDS011;9598;50.954;3.112;2023-05-19T14:50:05;12.52;;;7.70;;
18931;SDS011;9598;50.954;3.112;2023-05-19T14:55:07;9.77;;;8.23;;
18931;SDS011;9598;50.954;3.112;2023-05-19T15:00:12;10.15;;;7.40;;
18931;SDS011;9598;50.954;3.112;2023-05-19T15:05:14;14.30;;;7.07;;
18931;SDS011;9598;50.954;3.112;2023-05-19T15:10:17;11.75;;;7.50;;
18931;SDS011;9598;50.954;3.112;2023-05-19T15:15:21;11.02;;;7.50;;
18931;SDS011;9598;50.954;3.112;2023-05-19T15:20:23;10.10;;;7.03;;
18931;SDS011;9598;50.954;3.112;2023-05-19T15:25:25;12.65;;;7.20;;
18931;SDS011;9598;50.954;3.112;2023-05-19T15:30:29;10.20;;;8.02;;
18931;SDS011;9598;50.954;3.112;2023-05-19T15:35:31;10.82;;;7.80;;
18931;SDS011;9598;50.954;3.112;2023-05-19T15:40:33;13.52;;;7.30;;
18931;SDS011;9598;50.954;3.112;2023-05-19T15:45:37;12.95;;;7.63;;
18931;SDS011;9598;50.954;3.112;2023-05-19T15:50:39;8.10;;;7.22;;
18931;SDS011;9598;50.954;3.112;2023-05-19T15:55:41;12.63;;;7.03;;
18931;SDS011;9598;50.954;3.112;2023-05-19T16:00:44;12.07;;;7.63;;
18931;SDS011;9598;50.954;3.112;2023-05-19T16:05:46;11.38;;;8.00;;
18931;SDS011;9598;50.954;3.112;2023-05-19T16:10:48;10.77;;;7.13;;
18931;SDS011;9598;50.954;3.112;2023-05-19T16:15:52;11.95;;;7.13;;
18931;SDS011;9598;50.954;3.112;2023-05-19T16:20:54;13.15;;;7.25;;
18931;SDS011;9598;50.954;3.112;2023-05-19T16:25:56;11.15;;;6.93;;
18931;SDS011;9598;50.954;3.112;2023-05-19T16:31:00;12.88;;;7.00;;
18931;SDS011;9598;50.954;3.112;2023-05-19T16:36:02;12.15;;;7.45;;
18931;SDS011;9598;50.954;3.112;2023-05-19T16:41:05;8.48;;;5.80;;
18931;SDS011;9598;50.954;3.112;2023-05-19T16:46:12;10.10;;;6.78;;
18931;SDS011;9598;50.954;3.112;2023-05-19T16:51:14;9.25;;;6.72;;
18931;SDS011;9598;50.954;3.112;2023-05-19T16:56:16;10.75;;;6.28;;
18931;SDS011;9598;50.954;3.112;2023-05-19T17:01:20;10.35;;;5.82;;
18931;SDS011;9598;50.954;3.112;2023-05-19T17:06:22;10.43;;;6.45;;
18931;SDS011;9598;50.954;3.112;2023-05-19T17:11:24;9.00;;;5.80;;
18931;SDS011;9598;50.954;3.112;2023-05-19T17:16:28;12.20;;;5.88;;
18931;SDS011;9598;50.954;3.112;2023-05-19T17:21:30;10.95;;;5.45;;
18931;SDS011;9598;50.954;3.112;2023-05-19T17:26:32;10.48;;;5.50;;
18931;SDS011;9598;50.954;3.112;2023-05-19T17:31:36;8.48;;;5.45;;
18931;SDS011;9598;50.954;3.112;2023-05-19T17:36:38;10.23;;;5.55;;
18931;SDS011;9598;50.954;3.112;2023-05-19T17:41:40;10.38;;;6.07;;
18931;SDS011;9598;50.954;3.112;2023-05-19T17:46:43;7.72;;;5.40;;
18931;SDS011;9598;50.954;3.112;2023-05-19T17:51:46;9.40;;;5.10;;
18931;SDS011;9598;50.954;3.112;2023-05-19T17:56:48;8.38;;;4.57;;
18931;SDS011;9598;50.954;3.112;2023-05-19T18:01:52;8.98;;;4.85;;
18931;SDS011;9598;50.954;3.112;2023-05-19T18:06:55;10.80;;;5.28;;
18931;SDS011;9598;50.954;3.112;2023-05-19T18:11:58;7.38;;;4.88;;
18931;SDS011;9598;50.954;3.112;2023-05-19T18:17:03;9.48;;;5.13;;
18931;SDS011;9598;50.954;3.112;2023-05-19T18:22:05;6.15;;;4.45;;
18931;SDS011;9598;50.954;3.112;2023-05-19T18:27:09;10.35;;;4.60;;
18931;SDS011;9598;50.954;3.112;2023-05-19T18:32:13;11.95;;;4.85;;
18931;SDS011;9598;50.954;3.112;2023-05-19T18:37:16;12.13;;;4.65;;
18931;SDS011;9598;50.954;3.112;2023-05-19T18:42:18;9.30;;;4.78;;
18931;SDS011;9598;50.954;3.112;2023-05-19T18:47:22;8.30;;;4.43;;
18931;SDS011;9598;50.954;3.112;2023-05-19T18:52:25;10.48;;;4.68;;
18931;SDS011;9598;50.954;3.112;2023-05-19T18:57:27;10.07;;;4.57;;
18931;SDS011;9598;50.954;3.112;2023-05-19T19:02:31;7.32;;;5.00;;
18931;SDS011;9598;50.954;3.112;2023-05-19T19:07:33;9.38;;;5.47;;
18931;SDS011;9598;50.954;3.112;2023-05-19T19:12:39;15.52;;;5.95;;
18931;SDS011;9598;50.954;3.112;2023-05-19T19:17:42;10.90;;;6.13;;
18931;SDS011;9598;50.954;3.112;2023-05-19T19:22:44;7.40;;;5.32;;
18931;SDS011;9598;50.954;3.112;2023-05-19T19:27:46;14.63;;;5.80;;
18931;SDS011;9598;50.954;3.112;2023-05-19T19:32:50;14.57;;;6.57;;
18931;SDS011;9598;50.954;3.112;2023-05-19T19:37:53;11.52;;;6.00;;
18931;SDS011;9598;50.954;3.112;2023-05-19T19:42:56;13.05;;;5.60;;
18931;SDS011;9598;50.954;3.112;2023-05-19T19:47:59;12.68;;;5.30;;
18931;SDS011;9598;50.954;3.112;2023-05-19T19:53:01;10.77;;;5.80;;
18931;SDS011;9598;50.954;3.112;2023-05-19T19:58:03;14.45;;;6.38;;
18931;SDS011;9598;50.954;3.112;2023-05-19T20:03:07;15.57;;;6.78;;
18931;SDS011;9598;50.954;3.112;2023-05-19T20:08:09;9.85;;;6.35;;
18931;SDS011;9598;50.954;3.112;2023-05-19T20:13:11;11.77;;;5.75;;
18931;SDS011;9598;50.954;3.112;2023-05-19T20:18:14;10.02;;;6.07;;
18931;SDS011;9598;50.954;3.112;2023-05-19T20:23:17;11.20;;;5.70;;
18931;SDS011;9598;50.954;3.112;2023-05-19T20:28:19;15.05;;;6.57;;
18931;SDS011;9598;50.954;3.112;2023-05-19T20:33:22;12.05;;;6.40;;
18931;SDS011;9598;50.954;3.112;2023-05-19T20:38:24;10.38;;;5.78;;
18931;SDS011;9598;50.954;3.112;2023-05-19T20:43:26;15.40;;;6.78;;
18931;SDS011;9598;50.954;3.112;2023-05-19T20:48:30;12.65;;;6.13;;
18931;SDS011;9598;50.954;3.112;2023-05-19T20:53:32;14.90;;;6.22;;
18931;SDS011;9598;50.954;3.112;2023-05-19T20:58:35;16.08;;;6.38;;
18931;SDS011;9598;50.954;3.112;2023-05-19T21:03:39;11.52;;;5.95;;
18931;SDS011;9598;50.954;3.112;2023-05-19T21:08:41;14.63;;;5.88;;
18931;SDS011;9598;50.954;3.112;2023-05-19T21:13:43;11.75;;;5.88;;
18931;SDS011;9598;50.954;3.112;2023-05-19T21:18:46;16.52;;;6.35;;
18931;SDS011;9598;50.954;3.112;2023-05-19T21:23:49;10.10;;;5.13;;
18931;SDS011;9598;50.954;3.112;2023-05-19T21:28:51;11.57;;;5.50;;
18931;SDS011;9598;50.954;3.112;2023-05-19T21:33:54;10.65;;;6.13;;
18931;SDS011;9598;50.954;3.112;2023-05-19T21:38:57;14.93;;;6.07;;
18931;SDS011;9598;50.954;3.112;2023-05-19T21:43:59;12.98;;;5.88;;
18931;SDS011;9598;50.954;3.112;2023-05-19T21:49:02;13.07;;;5.97;;
18931;SDS011;9598;50.954;3.112;2023-05-19T21:54:05;13.23;;;6.75;;
18931;SDS011;9598;50.954;3.112;2023-05-19T21:59:07;15.43;;;5.97;;
18931;SDS011;9598;50.954;3.112;2023-05-19T22:04:12;11.52;;;5.95;;
18931;SDS011;9598;50.954;3.112;2023-05-19T22:09:14;15.70;;;6.28;;
18931;SDS011;9598;50.954;3.112;2023-05-19T22:14:17;11.05;;;6.20;;
18931;SDS011;9598;50.954;3.112;2023-05-19T22:19:20;12.00;;;6.82;;
18931;SDS011;9598;50.954;3.112;2023-05-19T22:24:22;13.85;;;6.63;;
18931;SDS011;9598;50.954;3.112;2023-05-19T22:29:24;12.77;;;7.57;;
18931;SDS011;9598;50.954;3.112;2023-05-19T22:34:28;13.52;;;7.18;;
18931;SDS011;9598;50.954;3.112;2023-05-19T22:39:30;13.50;;;7.63;;
18931;SDS011;9598;50.954;3.112;2023-05-19T22:44:32;12.18;;;8.00;;
18931;SDS011;9598;50.954;3.112;2023-05-19T22:49:35;19.42;;;8.95;;
18931;SDS011;9598;50.954;3.112;2023-05-19T22:54:38;14.10;;;8.00;;
18931;SDS011;9598;50.954;3.112;2023-05-19T22:59:40;20.23;;;10.07;;
18931;SDS011;9598;50.954;3.112;2023-05-19T23:04:43;15.80;;;10.18;;
18931;SDS011;9598;50.954;3.112;2023-05-19T23:09:45;18.45;;;10.45;;
18931;SDS011;9598;50.954;3.112;2023-05-19T23:14:47;19.40;;;10.38;;
18931;SDS011;9598;50.954;3.112;2023-05-19T23:19:51;17.30;;;10.43;;
18931;SDS011;9598;50.954;3.112;2023-05-19T23:24:53;18.17;;;11.15;;
18931;SDS011;9598;50.954;3.112;2023-05-19T23:29:55;12.48;;;9.15;;
18931;SDS011;9598;50.954;3.112;2023-05-19T23:35:08;17.33;;;10.18;;
18931;SDS011;9598;50.954;3.112;2023-05-19T23:40:11;21.35;;;10.75;;
18931;SDS011;9598;50.954;3.112;2023-05-19T23:45:14;15.05;;;10.23;;
18931;SDS011;9598;50.954;3.112;2023-05-19T23:50:17;13.93;;;9.73;;
18931;SDS011;9598;50.954;3.112;2023-05-19T23:55:19;14.95;;;10.43;;
